Campbell, Texas
Current Conditions -  °F | °C
As of 7:35 PM on Friday 21 Nov 2014 (Local Time) from KGVT Reporting Station
Overcast Overcast  
Wind Chill: 63°   Ceiling: 800
Heat Index: 63°   Visibility: 10mi
Dew Point: 59°   Wind: 12mph
Humidity: 88%   Direction: 130°SE
Pressure: 30.1"   Gusts: 17mph
Location:  33.15°N, 95.95°W
Report Text: KGVT 220135Z AUTO 13010G15KT 10SM OVC008 17/15 A3010 RMK AO2
Loading
Personal Weather Stations






























Interactive Weather Map New forecast layout! Learn more

10-Day Weather Forecast

Advertisements
Track Severe Weather on mobile